• Join FlightAware (Why Join?)
  • Login
  • US Flag 
02:33AM EDT


 

Airport Tracker/Info


-or-


 

Live Flight TrackerFlight Track Log ✈ MAS2742 ✈ 09-Sep-2013 ✈ WMKK / KUL - WBGB / BTU

Flight Track Log - Related Links

Times and Time Zones

All times are in EDT time to prevent confusion due to time zone crossing. See the MAS2742 flight status page for this flight to view local times or setup timezone preferences in your user account.

Time Position Orientation Groundspeed Altitude Reporting Facility
EDT Latitude Longitude Course Direction KTS MPH feet Rate Location/Type
11:04PM 2.8690 101.7480 63° Northeast 232 267 6,300  Level FlightAware
11:04PM 2.8770 101.7630 62° Northeast 234 269 6,900 720 Climbing FlightAware
11:05PM 2.8880 101.7840 62° Northeast 234 269 6,900 2,280 Level FlightAware
11:05PM 2.9210 101.8530 64° Northeast 290 334 9,600 2,160 Climbing FlightAware
11:06PM 2.9470 101.9060 64° Northeast 293 337 10,500 600 Climbing FlightAware
11:07PM 2.9660 101.9450 64° Northeast 293 337 10,500 1,620 Level FlightAware
11:07PM 2.9950 102.0050 64° Northeast 349 402 12,500 1,620 Climbing FlightAware
11:08PM 3.0170 102.0500 64° Northeast 349 402 12,500  Level FlightAware
11:09PM 3.0380 102.0940 64° Northeast 349 402 12,500 3,480 Level FlightAware
11:10PM 3.1510 102.3280 64° Northeast 21,400 4,500 Climbing FlightAware
11:11PM 3.1780 102.3980 69° East 416 479 21,600 120 Climbing FlightAware
11:11PM 3.2030 102.4620 69° East 416 479 21,600  Level FlightAware
11:12PM 3.2240 102.5170 69° East 416 479 21,600  Level FlightAware
11:13PM 3.2450 102.5720 69° East 416 479 21,600  Level FlightAware
11:13PM 3.2660 102.6270 69° East 416 479 21,600  Level FlightAware
11:14PM 3.2880 102.6840 69° East 416 479 21,600 1,980 Level FlightAware
11:16PM 3.2861 102.8624 91° East  Level Estimated
11:17PM 3.2849 102.9654 91° East  Level Estimated
11:17PM 3.3240 103.1360 91° East 425 489 29,000  Level FlightAware
11:17PM 3.3380 103.2050 79° East 425 489 29,000  Level FlightAware
11:18PM 3.3520 103.2680 77° East 425 489 29,000  Level FlightAware
11:19PM 3.3640 103.3270 78° East 425 489 29,000  Level FlightAware
11:19PM 3.3770 103.3870 78° East 425 489 29,000  Level FlightAware
11:20PM 3.3890 103.4460 78° East 425 489 29,000  Level FlightAware
11:20PM 3.4020 103.5050 78° East 425 489 29,000  Level FlightAware
11:21PM 3.4140 103.5640 78° East 425 489 29,000  Level FlightAware
11:23PM 3.2660 103.8470 118° Southeast 436 502 29,000  Level FlightAware
11:24PM 3.2450 103.9240 105° East 437 503 29,000  Level FlightAware
11:24PM 3.2290 103.9840 105° East 437 503 29,000  Level FlightAware
11:25PM 3.2010 104.0840 106° East 440 506 29,000  Level FlightAware
11:26PM 3.1850 104.1440 105° East 440 506 29,000  Level FlightAware
11:26PM 3.1600 104.2320 106° East 444 511 29,000  Level FlightAware
11:27PM 3.1430 104.2940 105° East 444 511 29,000 660 Level FlightAware
11:28PM 3.1200 104.3780 105° East 450 518 29,900 1,740 Climbing FlightAware
11:28PM 3.1000 104.4490 106° East 456 525 31,100 1,740 Climbing FlightAware
11:29PM 3.0800 104.5200 106° East 457 526 31,900 1,560 Climbing FlightAware
11:29PM 3.0600 104.5950 105° East 452 520 33,000 1,680 Climbing FlightAware
11:30PM 3.0420 104.6600 105° East 445 512 33,900 1,380 Climbing FlightAware
11:30PM 3.0220 104.7330 105° East 447 514 34,600 1,080 Climbing FlightAware
11:31PM 3.0040 104.7970 106° East 438 504 35,200 480 Climbing FlightAware
11:32PM 2.9870 104.8580 106° East 438 504 35,200  Level FlightAware
11:32PM 2.9710 104.9180 105° East 438 504 35,200  Level FlightAware
11:33PM 2.9550 104.9780 105° East 438 504 35,200  Level FlightAware
11:33PM 2.9390 105.0380 105° East 438 504 35,200 1,620 Level FlightAware
11:34PM 2.9130 105.1250 107° East 427 491 37,000 1,560 Climbing FlightAware
11:34PM 2.8950 105.1900 105° East 427 491 37,000  Level FlightAware
11:35PM 2.8730 105.2710 105° East 423 487 37,000  Level FlightAware
11:36PM 2.8550 105.3380 105° East 421 484 37,000  Level FlightAware
11:36PM 2.8390 105.3940 106° East 419 482 37,000  Level FlightAware
11:37PM 2.8190 105.4680 105° East 417 480 37,000  Level FlightAware
11:37PM 2.8010 105.5340 105° East 415 478 37,000  Level FlightAware
11:38PM 2.7820 105.6000 106° East 418 481 37,000  Level FlightAware
11:39PM 2.7670 105.6570 105° East 420 483 37,000  Level FlightAware
11:39PM 2.7480 105.7270 105° East 427 491 37,000  Level FlightAware
11:40PM 2.7280 105.7960 106° East 429 494 37,000  Level FlightAware
11:40PM 2.7100 105.8640 105° East 438 504 37,000  Level FlightAware
11:41PM 2.6920 105.9270 106° East 441 507 37,000  Level FlightAware
11:41PM 2.6720 106.0010 105° East 442 509 37,000  Level FlightAware
11:42PM 2.6520 106.0720 106° East 440 506 37,000  Level FlightAware
11:43PM 2.6360 106.1310 105° East 438 504 37,000  Level FlightAware
11:43PM 2.6130 106.2170 105° East 436 502 37,000  Level FlightAware
11:44PM 2.5970 106.2770 105° East 436 502 37,000  Level FlightAware
11:45PM 2.5810 106.3360 105° East 436 502 37,000  Level FlightAware
11:45PM 2.5640 106.3980 105° East 436 502 37,000  Level FlightAware
11:46PM 2.5480 106.4590 105° East 436 502 37,000  Level FlightAware
11:46PM 2.5310 106.5200 106° East 436 502 37,000  Level FlightAware
11:47PM 2.5150 106.5800 105° East 436 502 37,000  Level FlightAware
11:48PM 2.4990 106.6400 105° East 436 502 37,000  Level FlightAware
11:48PM 2.4830 106.6990 105° East 436 502 37,000  Level FlightAware
11:49PM 2.4300 106.8770 107° East 429 494 37,000  Level FlightAware
11:50PM 2.4140 106.9360 105° East 429 494 37,000  Level FlightAware
11:50PM 2.3990 106.9940 105° East 429 494 37,000  Level FlightAware
11:51PM 2.3830 107.0530 105° East 429 494 37,000  Level FlightAware
11:52PM 2.3660 107.1150 105° East 429 494 37,000  Level FlightAware
11:52PM 2.3510 107.1740 104° East 429 494 37,000  Level FlightAware
11:53PM 2.3350 107.2330 105° East 429 494 37,000  Level FlightAware
11:53PM 2.3190 107.2910 105° East 429 494 37,000  Level FlightAware
11:54PM 2.3040 107.3500 104° East 429 494 37,000  Level FlightAware
11:55PM 2.2870 107.4100 106° East 429 494 37,000  Level FlightAware
11:55PM 2.2720 107.4690 104° East 429 494 37,000  Level FlightAware
11:56PM 2.2560 107.5290 105° East 429 494 37,000  Level FlightAware
11:56PM 2.2400 107.5880 105° East 429 494 37,000  Level FlightAware
11:57PM 2.2240 107.6470 105° East 429 494 37,000  Level FlightAware
11:58PM 2.2080 107.7050 105° East 429 494 37,000  Level FlightAware
11:58PM 2.3870 107.9080 49° Northeast 428 493 37,000  Level FlightAware
11:59PM 2.4000 107.9780 79° East 429 494 37,000  Level FlightAware
11:59PM 2.4120 108.0420 79° East 430 495 37,000  Level FlightAware
12:00AM 2.4250 108.1110 79° East 430 495 37,000  Level FlightAware
12:00AM 2.4390 108.1860 79° East 430 495 37,000  Level FlightAware
12:01AM 2.4510 108.2480 79° East 429 494 37,000  Level FlightAware
12:01AM 2.4640 108.3190 80° East 428 493 37,000  Level FlightAware
12:02AM 2.4770 108.3880 79° East 426 490 37,000  Level FlightAware
12:03AM 2.4900 108.4570 79° East 425 489 37,000  Level FlightAware
12:03AM 2.5050 108.5360 79° East 426 490 37,000  Level FlightAware
12:04AM 2.5210 108.6200 79° East 426 490 37,000  Level FlightAware
12:05AM 2.5320 108.6820 80° East 426 490 37,000  Level FlightAware
12:05AM 2.5450 108.7520 79° East 425 489 37,000  Level FlightAware
12:06AM 2.5580 108.8210 79° East 425 489 37,000  Level FlightAware
12:06AM 2.5700 108.8850 79° East 426 490 37,000  Level FlightAware
12:07AM 2.5820 108.9520 80° East 427 491 37,000  Level FlightAware
12:08AM 2.5930 109.0280 82° East 428 493 37,000  Level FlightAware
12:08AM 2.6010 109.0890 83° East 427 491 37,000  Level FlightAware
12:09AM 2.6110 109.1600 82° East 425 489 37,000  Level FlightAware
12:09AM 2.6190 109.2310 84° East 425 489 37,000  Level FlightAware
12:10AM 2.6210 109.3000 88° East 425 489 37,000  Level FlightAware
12:10AM 2.6220 109.3630 89° East 424 488 37,000  Level FlightAware
12:11AM 2.6250 109.4340 88° East 429 494 37,000  Level FlightAware
12:12AM 2.6270 109.5050 88° East 431 496 37,000  Level FlightAware
12:12AM 2.6280 109.5680 89° East 431 496 37,000  Level FlightAware
12:13AM 2.6290 109.6420 89° East 430 495 37,000  Level FlightAware
12:13AM 2.6310 109.7120 88° East 429 494 37,000  Level FlightAware
12:14AM 2.6360 109.7840 86° East 429 494 37,000  Level FlightAware
12:14AM 2.6450 109.8430 81° East 430 495 37,000  Level FlightAware
12:15AM 2.6570 109.9170 81° East 429 494 37,000  Level FlightAware
12:16AM 2.6720 109.9850 78° East 427 491 37,000  Level FlightAware
12:16AM 2.6880 110.0490 76° East 427 491 37,000  Level FlightAware
12:17AM 2.7050 110.1160 76° East 425 489 37,000  Level FlightAware
12:17AM 2.7230 110.1810 75° East 425 489 37,000  Level FlightAware
12:18AM 2.7440 110.2520 74° East 424 488 37,000  Level FlightAware
12:19AM 2.7610 110.3130 74° East 423 487 37,000  Level FlightAware
12:19AM 2.7810 110.3810 74° East 424 488 37,000  Level FlightAware
12:20AM 2.7940 110.4520 80° East 424 488 37,000  Level FlightAware
12:20AM 2.8040 110.5210 82° East 423 487 37,000  Level FlightAware
12:21AM 2.8140 110.5910 82° East 424 488 37,000  Level FlightAware
12:21AM 2.8230 110.6540 82° East 425 489 37,000  Level FlightAware
12:22AM 2.8330 110.7240 82° East 424 488 37,000  Level FlightAware
12:23AM 2.8420 110.7910 82° East 424 488 37,000  Level FlightAware
12:23AM 2.8520 110.8570 81° East 424 488 37,000  Level FlightAware
12:24AM 2.8610 110.9260 83° East 425 489 37,000  Level FlightAware
12:24AM 2.8700 110.9850 81° East 425 489 37,000  Level FlightAware
12:25AM 2.8810 111.0480 80° East 425 489 37,000 -1,560 Level FlightAware
12:25AM 2.8990 111.1120 74° East 419 482 35,300 -3,000 Descending FlightAware
12:26AM 2.9200 111.2030 77° East 422 486 33,300 -1,440 Descending FlightAware
12:27AM 2.9340 111.2660 77° East 422 486 33,300 -2,040 Level FlightAware
12:27AM 2.9510 111.3410 77° East 409 471 30,800 -2,100 Descending FlightAware
12:28AM 2.9640 111.4010 78° East 409 471 30,800  Level FlightAware
12:29AM 2.9780 111.4570 76° East 409 471 30,800  Level FlightAware
12:29AM 2.9910 111.5140 77° East 409 471 30,800  Level FlightAware
12:30AM 3.0040 111.5700 77° East 409 471 30,800  Level FlightAware
12:31AM 3.0170 111.6270 77° East 409 471 30,800  Level FlightAware
12:31AM 3.0300 111.6850 77° East 409 471 30,800  Level FlightAware
12:32AM 3.0430 111.7410 77° East 409 471 30,800  Level FlightAware
12:32AM 3.0560 111.7980 77° East 409 471 30,800  Level FlightAware
12:33AM 3.0690 111.8560 77° East 409 471 30,800  Level FlightAware
12:34AM 3.0820 111.9120 77° East 409 471 30,800  Level FlightAware
12:34AM 3.0950 111.9690 77° East 409 471 30,800  Level FlightAware
12:35AM 3.1080 112.0250 77° East 409 471 30,800  Level FlightAware
12:35AM 3.1220 112.0820 76° East 409 471 30,800  Level FlightAware
12:36AM 3.1350 112.1380 77° East 409 471 30,800  Level FlightAware
12:37AM 3.1480 112.1950 77° East 409 471 30,800  Level FlightAware
12:37AM 3.1610 112.2510 77° East 409 471 30,800  Level FlightAware
12:40AM 3.1507 112.4651 93° East  Level Estimated
12:41AM 3.1464 112.5556 93° East  Level Estimated
12:42AM 3.1420 112.6461 93° East  Level Estimated
12:43AM 3.1376 112.7366 93° East  Level Estimated
12:44AM 3.1332 112.8271 93° East  Level Estimated
12:45AM 3.1288 112.9175 93° East  Level Estimated
12:46AM 3.1245 113.0080 93° East  Level Estimated
12:47AM 3.1239 113.0205 93° East  Level Estimated
12:48AM 3.1239 113.0205 90° East  Level Estimated
12:49AM 3.1239 113.0205 90° East  Level Estimated
12:50AM 3.1239 113.0205 90° East  Level Estimated
12:51AM 3.1239 113.0205 90° East  Level Estimated
12:52AM 3.1239 113.0205 90° East  Level Estimated
12:53AM 3.1239 113.0205 90° East  Level Estimated
12:54AM 3.1239 113.0205 90° East  Level Estimated
12:55AM 3.1239 113.0205 90° East  Level Estimated
12:56AM 3.1239 113.0205 90° East  Level Estimated
12:57AM 3.1239 113.0205 90° East  Level Estimated
12:58AM 3.1239 113.0205 90° East  Level Estimated
12:59AM 3.1239 113.0205 90° East  Level Estimated
01:00AM 3.1239 113.0205 90° East  Level Estimated
01:01AM 3.1239 113.0205 90° East  Level Estimated